Glendale, Missouri
Current Conditions -  °F | °C
As of 9:57 PM on Wednesday 26 Nov 2014 (Local Time) from KSTL Reporting Station
Light Snow Light Snow  
Wind Chill: 29°   Ceiling: 200
Heat Index: 34°   Visibility: 1mi
Dew Point: 30°   Wind: 6mph
Humidity: 87%   Direction: 340°NNW
Pressure: 30.13"   Gusts: NA
Location:  38.5796°N, 90.4197°W
Report Text: KSTL 270357Z 34005KT 1SM -SN BR OVC002 01/M01 A3013 RMK AO2 SFC VIS 1 1/4 P0000
Loading
Personal Weather Stations






























Interactive Weather Map New forecast layout! Learn more

10-Day Weather Forecast

Advertisements
Track Severe Weather on mobile